SHT4A EGLL-EGAC
Flight info
| Callsign | SHT4A |
|---|---|
| Flight time | 0h 52m |
| Altitude | 36000 |
| Route | ULTIB T420 TNT UL28 RODOL UM65 TENSO L603 BELOX DCT REMSI DCT NINEB M148 MAGEE |
| Aircraft | A320/M-SDE3FGHIRWY/LB1 |
Departure
| Time | 2026-04-26 08:04 |
|---|---|
| Airport | London Heathrow Airport (EGLL) |
Arrival
| Time | 2026-04-26 08:57 |
|---|---|
| Airport | George Best Belfast City Airport (EGAC) |
| Time | Latitude | Longitude | Altitude | Speed | Heading |
|---|---|---|---|---|---|
| 2026-04-26 07:29 | 51.47232 | -0.48588 | 89 ft | 0 kts | 270° |
| 2026-04-26 07:55 | 51.47232 | -0.48581 | 90 ft | 3 kts | 270° |
| 2026-04-26 07:55 | 51.47232 | -0.48538 | 87 ft | 4 kts | 270° |
| 2026-04-26 07:55 | 51.47235 | -0.48497 | 89 ft | 4 kts | 239° |
| 2026-04-26 07:56 | 51.47252 | -0.48476 | 89 ft | 3 kts | 181° |
| 2026-04-26 07:56 | 51.47261 | -0.48476 | 88 ft | 0 kts | 180° |
| 2026-04-26 07:58 | 51.47253 | -0.48476 | 89 ft | 3 kts | 180° |
| 2026-04-26 07:58 | 51.47226 | -0.48476 | 88 ft | 5 kts | 180° |
| 2026-04-26 07:59 | 51.47181 | -0.48476 | 87 ft | 8 kts | 180° |
| 2026-04-26 07:59 | 51.47117 | -0.48475 | 87 ft | 10 kts | 180° |
| 2026-04-26 07:59 | 51.47043 | -0.48474 | 87 ft | 8 kts | 179° |
| 2026-04-26 07:59 | 51.46982 | -0.48474 | 87 ft | 10 kts | 180° |
| 2026-04-26 08:00 | 51.46901 | -0.48473 | 87 ft | 13 kts | 179° |
| 2026-04-26 08:00 | 51.46800 | -0.48472 | 90 ft | 16 kts | 180° |
| 2026-04-26 08:00 | 51.46713 | -0.48470 | 87 ft | 11 kts | 179° |
| 2026-04-26 08:00 | 51.46661 | -0.48470 | 87 ft | 7 kts | 180° |
| 2026-04-26 08:01 | 51.46626 | -0.48470 | 87 ft | 3 kts | 180° |
| 2026-04-26 08:01 | 51.46601 | -0.48470 | 88 ft | 4 kts | 180° |
| 2026-04-26 08:01 | 51.46565 | -0.48470 | 88 ft | 6 kts | 179° |
| 2026-04-26 08:01 | 51.46521 | -0.48469 | 89 ft | 7 kts | 180° |
| 2026-04-26 08:02 | 51.46480 | -0.48431 | 91 ft | 8 kts | 107° |
| 2026-04-26 08:02 | 51.46479 | -0.48393 | 89 ft | 0 kts | 91° |
| 2026-04-26 08:03 | 51.46478 | -0.48315 | 89 ft | 28 kts | 90° |
| 2026-04-26 08:03 | 51.46480 | -0.47604 | 85 ft | 96 kts | 89° |
| 2026-04-26 08:03 | 51.46484 | -0.46249 | 91 ft | 145 kts | 89° |
| 2026-04-26 08:04 | 51.46492 | -0.44578 | 613 ft | 151 kts | 90° |
| 2026-04-26 08:04 | 51.46555 | -0.42884 | 1309 ft | 155 kts | 79° |
| 2026-04-26 08:04 | 51.46991 | -0.41181 | 1639 ft | 179 kts | 60° |
| 2026-04-26 08:04 | 51.47755 | -0.39463 | 1970 ft | 200 kts | 57° |
| 2026-04-26 08:05 | 51.48621 | -0.37541 | 2273 ft | 225 kts | 56° |
| 2026-04-26 08:05 | 51.49603 | -0.35423 | 2736 ft | 247 kts | 54° |
| 2026-04-26 08:05 | 51.50669 | -0.33206 | 3599 ft | 253 kts | 53° |
| 2026-04-26 08:05 | 51.51774 | -0.30971 | 4542 ft | 257 kts | 54° |
| 2026-04-26 08:06 | 51.52648 | -0.28461 | 5408 ft | 261 kts | 72° |
| 2026-04-26 08:06 | 51.53296 | -0.25698 | 6232 ft | 269 kts | 61° |
| 2026-04-26 08:06 | 51.54548 | -0.23450 | 7034 ft | 276 kts | 33° |
| 2026-04-26 08:06 | 51.56345 | -0.22368 | 7840 ft | 280 kts | 5° |
| 2026-04-26 08:07 | 51.58278 | -0.22744 | 8665 ft | 283 kts | 344° |
| 2026-04-26 08:07 | 51.60208 | -0.23485 | 9559 ft | 287 kts | 347° |
| 2026-04-26 08:07 | 51.62131 | -0.24399 | 10382 ft | 290 kts | 335° |
| 2026-04-26 08:07 | 51.63965 | -0.25935 | 10813 ft | 308 kts | 329° |
| 2026-04-26 08:08 | 51.65865 | -0.27690 | 11059 ft | 329 kts | 329° |
| 2026-04-26 08:08 | 51.67889 | -0.29628 | 11629 ft | 337 kts | 328° |
| 2026-04-26 08:08 | 51.69912 | -0.31595 | 12336 ft | 342 kts | 327° |
| 2026-04-26 08:08 | 51.71956 | -0.33591 | 13053 ft | 345 kts | 327° |
| 2026-04-26 08:09 | 51.74017 | -0.35602 | 13770 ft | 348 kts | 327° |
| 2026-04-26 08:09 | 51.76099 | -0.37624 | 14434 ft | 351 kts | 327° |
| 2026-04-26 08:09 | 51.78207 | -0.39666 | 15038 ft | 355 kts | 327° |
| 2026-04-26 08:09 | 51.80332 | -0.41724 | 15642 ft | 358 kts | 327° |
| 2026-04-26 08:10 | 51.82481 | -0.43800 | 16253 ft | 361 kts | 327° |
| 2026-04-26 08:10 | 51.84647 | -0.45898 | 16859 ft | 364 kts | 327° |
| 2026-04-26 08:10 | 51.86831 | -0.48021 | 17446 ft | 368 kts | 327° |
| 2026-04-26 08:10 | 51.89034 | -0.50167 | 18058 ft | 372 kts | 327° |
| 2026-04-26 08:11 | 51.91265 | -0.52339 | 18650 ft | 375 kts | 327° |
| 2026-04-26 08:11 | 51.93515 | -0.54528 | 19185 ft | 378 kts | 327° |
| 2026-04-26 08:11 | 51.95777 | -0.56732 | 19767 ft | 380 kts | 327° |
| 2026-04-26 08:11 | 51.98051 | -0.58952 | 20328 ft | 382 kts | 327° |
| 2026-04-26 08:12 | 52.00333 | -0.61185 | 20910 ft | 384 kts | 327° |
| 2026-04-26 08:12 | 52.02630 | -0.63437 | 21458 ft | 386 kts | 326° |
| 2026-04-26 08:12 | 52.04934 | -0.65696 | 22003 ft | 388 kts | 326° |
| 2026-04-26 08:12 | 52.07221 | -0.67942 | 22540 ft | 389 kts | 326° |
| 2026-04-26 08:13 | 52.09546 | -0.70228 | 23060 ft | 391 kts | 326° |
| 2026-04-26 08:13 | 52.11887 | -0.72532 | 23574 ft | 394 kts | 326° |
| 2026-04-26 08:13 | 52.14237 | -0.74844 | 24063 ft | 396 kts | 326° |
| 2026-04-26 08:13 | 52.16601 | -0.77171 | 24488 ft | 398 kts | 326° |
| 2026-04-26 08:14 | 52.18976 | -0.79512 | 24913 ft | 400 kts | 326° |
| 2026-04-26 08:14 | 52.21359 | -0.81870 | 25334 ft | 401 kts | 326° |
| 2026-04-26 08:14 | 52.23751 | -0.84245 | 25755 ft | 403 kts | 326° |
| 2026-04-26 08:14 | 52.26151 | -0.86633 | 26160 ft | 405 kts | 326° |
| 2026-04-26 08:15 | 52.28567 | -0.89033 | 26586 ft | 407 kts | 326° |
| 2026-04-26 08:15 | 52.30988 | -0.91440 | 26989 ft | 409 kts | 326° |
| 2026-04-26 08:15 | 52.33422 | -0.93865 | 27379 ft | 411 kts | 326° |
| 2026-04-26 08:15 | 52.35869 | -0.96305 | 27763 ft | 413 kts | 326° |
| 2026-04-26 08:16 | 52.37529 | -0.97961 | 28038 ft | 414 kts | 326° |
| 2026-04-26 08:16 | 52.39997 | -1.00425 | 28433 ft | 416 kts | 326° |
| 2026-04-26 08:16 | 52.42446 | -1.02872 | 28816 ft | 419 kts | 325° |
| 2026-04-26 08:16 | 52.44937 | -1.05368 | 29182 ft | 421 kts | 325° |
| 2026-04-26 08:17 | 52.47439 | -1.07882 | 29557 ft | 423 kts | 325° |
| 2026-04-26 08:17 | 52.49951 | -1.10407 | 29932 ft | 425 kts | 325° |
| 2026-04-26 08:17 | 52.52478 | -1.12947 | 30309 ft | 427 kts | 325° |
| 2026-04-26 08:17 | 52.55018 | -1.15502 | 30624 ft | 429 kts | 325° |
| 2026-04-26 08:18 | 52.57574 | -1.18079 | 30952 ft | 430 kts | 325° |
| 2026-04-26 08:18 | 52.60123 | -1.20652 | 31406 ft | 429 kts | 325° |
| 2026-04-26 08:18 | 52.62659 | -1.23214 | 31872 ft | 427 kts | 325° |
| 2026-04-26 08:18 | 52.65186 | -1.25770 | 32342 ft | 426 kts | 325° |
| 2026-04-26 08:19 | 52.67704 | -1.28321 | 32799 ft | 424 kts | 324° |
| 2026-04-26 08:19 | 52.70217 | -1.30869 | 33259 ft | 423 kts | 324° |
| 2026-04-26 08:19 | 52.72718 | -1.33409 | 33750 ft | 422 kts | 324° |
| 2026-04-26 08:19 | 52.75210 | -1.35946 | 34301 ft | 420 kts | 324° |
| 2026-04-26 08:20 | 52.77693 | -1.38483 | 34735 ft | 419 kts | 324° |
| 2026-04-26 08:20 | 52.80171 | -1.41019 | 35113 ft | 418 kts | 324° |
| 2026-04-26 08:20 | 52.82641 | -1.43547 | 35456 ft | 418 kts | 324° |
| 2026-04-26 08:20 | 52.85116 | -1.46082 | 35773 ft | 418 kts | 324° |
| 2026-04-26 08:21 | 52.87590 | -1.48620 | 36101 ft | 418 kts | 324° |
| 2026-04-26 08:21 | 52.90063 | -1.51163 | 36313 ft | 419 kts | 324° |
| 2026-04-26 08:21 | 52.95066 | -1.56303 | 36356 ft | 425 kts | 324° |
| 2026-04-26 08:22 | 53.00100 | -1.61492 | 36373 ft | 426 kts | 324° |
| 2026-04-26 08:22 | 53.05124 | -1.66704 | 36348 ft | 426 kts | 324° |
| 2026-04-26 08:23 | 53.10146 | -1.71923 | 36347 ft | 426 kts | 324° |
| 2026-04-26 08:23 | 53.15179 | -1.77152 | 36360 ft | 426 kts | 324° |
| 2026-04-26 08:24 | 53.20205 | -1.82405 | 36362 ft | 426 kts | 324° |
| 2026-04-26 08:24 | 53.25205 | -1.87616 | 36370 ft | 427 kts | 325° |
| 2026-04-26 08:25 | 53.30400 | -1.92594 | 36358 ft | 428 kts | 327° |
| 2026-04-26 08:25 | 53.35578 | -1.97369 | 36352 ft | 427 kts | 327° |
| 2026-04-26 08:26 | 53.40768 | -2.02232 | 36346 ft | 427 kts | 327° |
| 2026-04-26 08:26 | 53.45928 | -2.07166 | 36347 ft | 427 kts | 326° |
| 2026-04-26 08:27 | 53.51082 | -2.12118 | 36345 ft | 427 kts | 326° |
| 2026-04-26 08:27 | 53.56202 | -2.17195 | 36336 ft | 425 kts | 320° |
| 2026-04-26 08:28 | 53.60298 | -2.24137 | 36339 ft | 416 kts | 302° |
| 2026-04-26 08:28 | 53.62835 | -2.32822 | 36326 ft | 413 kts | 289° |
| 2026-04-26 08:29 | 53.64900 | -2.41853 | 36324 ft | 413 kts | 289° |
| 2026-04-26 08:29 | 53.66967 | -2.50898 | 36321 ft | 414 kts | 289° |
| 2026-04-26 08:30 | 53.69033 | -2.59961 | 36326 ft | 414 kts | 289° |
| 2026-04-26 08:30 | 53.71084 | -2.69034 | 36336 ft | 414 kts | 289° |
| 2026-04-26 08:31 | 53.73126 | -2.78073 | 36323 ft | 414 kts | 289° |
| 2026-04-26 08:31 | 53.75171 | -2.87179 | 36308 ft | 414 kts | 289° |
| 2026-04-26 08:32 | 53.77201 | -2.96297 | 36306 ft | 415 kts | 288° |
| 2026-04-26 08:32 | 53.79227 | -3.05427 | 36307 ft | 415 kts | 288° |
| 2026-04-26 08:33 | 53.81253 | -3.14566 | 36309 ft | 415 kts | 288° |
| 2026-04-26 08:33 | 53.83276 | -3.23723 | 36306 ft | 415 kts | 288° |
| 2026-04-26 08:34 | 53.85286 | -3.32894 | 36307 ft | 415 kts | 288° |
| 2026-04-26 08:34 | 53.87290 | -3.42082 | 36304 ft | 415 kts | 288° |
| 2026-04-26 08:35 | 53.89289 | -3.51278 | 36080 ft | 416 kts | 288° |
| 2026-04-26 08:35 | 53.90289 | -3.55870 | 35833 ft | 415 kts | 288° |
| 2026-04-26 08:35 | 53.91284 | -3.60459 | 35573 ft | 415 kts | 288° |
| 2026-04-26 08:36 | 53.92280 | -3.65064 | 35110 ft | 416 kts | 288° |
| 2026-04-26 08:36 | 53.93279 | -3.69697 | 34302 ft | 420 kts | 287° |
| 2026-04-26 08:36 | 53.94287 | -3.74394 | 33363 ft | 425 kts | 287° |
| 2026-04-26 08:36 | 53.95289 | -3.79076 | 32916 ft | 419 kts | 287° |
| 2026-04-26 08:37 | 53.96410 | -3.83616 | 32378 ft | 417 kts | 295° |
| 2026-04-26 08:37 | 53.97837 | -3.87895 | 31837 ft | 414 kts | 296° |
| 2026-04-26 08:37 | 53.99270 | -3.92119 | 31293 ft | 411 kts | 296° |
| 2026-04-26 08:37 | 54.00689 | -3.96310 | 30755 ft | 407 kts | 296° |
| 2026-04-26 08:38 | 54.02094 | -4.00470 | 30196 ft | 404 kts | 296° |
| 2026-04-26 08:38 | 54.03484 | -4.04603 | 29634 ft | 400 kts | 296° |
| 2026-04-26 08:38 | 54.04835 | -4.08636 | 29118 ft | 395 kts | 296° |
| 2026-04-26 08:38 | 54.06197 | -4.12657 | 28609 ft | 391 kts | 299° |
| 2026-04-26 08:39 | 54.07741 | -4.16452 | 28113 ft | 388 kts | 302° |
| 2026-04-26 08:39 | 54.09296 | -4.20182 | 27622 ft | 384 kts | 302° |
| 2026-04-26 08:39 | 54.10830 | -4.23877 | 27158 ft | 380 kts | 302° |
| 2026-04-26 08:39 | 54.12349 | -4.27551 | 26681 ft | 377 kts | 302° |
| 2026-04-26 08:40 | 54.13855 | -4.31202 | 26235 ft | 375 kts | 302° |
| 2026-04-26 08:40 | 54.15346 | -4.34823 | 25807 ft | 372 kts | 302° |
| 2026-04-26 08:40 | 54.16830 | -4.38423 | 25389 ft | 370 kts | 302° |
| 2026-04-26 08:40 | 54.18306 | -4.42012 | 24955 ft | 368 kts | 302° |
| 2026-04-26 08:41 | 54.19769 | -4.45575 | 24528 ft | 365 kts | 302° |
| 2026-04-26 08:41 | 54.21224 | -4.49123 | 24111 ft | 363 kts | 302° |
| 2026-04-26 08:41 | 54.22670 | -4.52654 | 23645 ft | 361 kts | 302° |
| 2026-04-26 08:41 | 54.24107 | -4.56164 | 23194 ft | 358 kts | 302° |
| 2026-04-26 08:42 | 54.25527 | -4.59628 | 22761 ft | 354 kts | 302° |
| 2026-04-26 08:42 | 54.26933 | -4.63060 | 22330 ft | 351 kts | 302° |
| 2026-04-26 08:42 | 54.28324 | -4.66460 | 21898 ft | 348 kts | 302° |
| 2026-04-26 08:42 | 54.29699 | -4.69841 | 21443 ft | 345 kts | 302° |
| 2026-04-26 08:43 | 54.31066 | -4.73214 | 20997 ft | 343 kts | 302° |
| 2026-04-26 08:43 | 54.32418 | -4.76559 | 20559 ft | 341 kts | 302° |
| 2026-04-26 08:43 | 54.33768 | -4.79901 | 20106 ft | 340 kts | 301° |
| 2026-04-26 08:43 | 54.35114 | -4.83233 | 19642 ft | 339 kts | 302° |
| 2026-04-26 08:44 | 54.36438 | -4.86509 | 19199 ft | 338 kts | 302° |
| 2026-04-26 08:44 | 54.37779 | -4.89828 | 18747 ft | 338 kts | 302° |
| 2026-04-26 08:44 | 54.39112 | -4.93137 | 18252 ft | 337 kts | 302° |
| 2026-04-26 08:44 | 54.40440 | -4.96439 | 17797 ft | 335 kts | 301° |
| 2026-04-26 08:45 | 54.41758 | -4.99729 | 17347 ft | 333 kts | 301° |
| 2026-04-26 08:45 | 54.43069 | -5.03004 | 16893 ft | 331 kts | 301° |
| 2026-04-26 08:45 | 54.44372 | -5.06256 | 16449 ft | 330 kts | 301° |
| 2026-04-26 08:45 | 54.45825 | -5.09329 | 15990 ft | 336 kts | 315° |
| 2026-04-26 08:46 | 54.47638 | -5.11888 | 15550 ft | 338 kts | 319° |
| 2026-04-26 08:46 | 54.49487 | -5.14377 | 15059 ft | 337 kts | 319° |
| 2026-04-26 08:46 | 54.51310 | -5.16825 | 14568 ft | 327 kts | 319° |
| 2026-04-26 08:46 | 54.53081 | -5.19201 | 14088 ft | 317 kts | 319° |
| 2026-04-26 08:47 | 54.54796 | -5.21503 | 13552 ft | 308 kts | 319° |
| 2026-04-26 08:47 | 54.56472 | -5.23743 | 13030 ft | 301 kts | 319° |
| 2026-04-26 08:47 | 54.58114 | -5.25929 | 12508 ft | 295 kts | 319° |
| 2026-04-26 08:47 | 54.59730 | -5.28072 | 11998 ft | 291 kts | 319° |
| 2026-04-26 08:48 | 54.61320 | -5.30173 | 11520 ft | 285 kts | 319° |
| 2026-04-26 08:48 | 54.62888 | -5.32235 | 11053 ft | 281 kts | 319° |
| 2026-04-26 08:48 | 54.64435 | -5.34261 | 10596 ft | 277 kts | 319° |
| 2026-04-26 08:48 | 54.65961 | -5.36255 | 10142 ft | 273 kts | 319° |
| 2026-04-26 08:49 | 54.67462 | -5.38214 | 9659 ft | 269 kts | 319° |
| 2026-04-26 08:49 | 54.68923 | -5.40128 | 9210 ft | 265 kts | 319° |
| 2026-04-26 08:49 | 54.70398 | -5.42074 | 8716 ft | 262 kts | 319° |
| 2026-04-26 08:49 | 54.71813 | -5.43957 | 8265 ft | 259 kts | 319° |
| 2026-04-26 08:50 | 54.73250 | -5.45876 | 7806 ft | 256 kts | 319° |
| 2026-04-26 08:50 | 54.74633 | -5.47728 | 7362 ft | 253 kts | 319° |
| 2026-04-26 08:50 | 54.76017 | -5.49589 | 6918 ft | 250 kts | 319° |
| 2026-04-26 08:50 | 54.77378 | -5.51432 | 6466 ft | 247 kts | 319° |
| 2026-04-26 08:51 | 54.78948 | -5.56213 | 5522 ft | 229 kts | 263° |
| 2026-04-26 08:51 | 54.78554 | -5.58841 | 5016 ft | 225 kts | 246° |
| 2026-04-26 08:51 | 54.77948 | -5.61317 | 4616 ft | 220 kts | 244° |
| 2026-04-26 08:52 | 54.77346 | -5.63683 | 4350 ft | 209 kts | 244° |
| 2026-04-26 08:52 | 54.76768 | -5.65942 | 4054 ft | 202 kts | 244° |
| 2026-04-26 08:52 | 54.76213 | -5.68134 | 3752 ft | 196 kts | 244° |
| 2026-04-26 08:52 | 54.75627 | -5.70237 | 3394 ft | 193 kts | 232° |
| 2026-04-26 08:53 | 54.74679 | -5.71794 | 3037 ft | 185 kts | 213° |
| 2026-04-26 08:53 | 54.73638 | -5.73041 | 2761 ft | 178 kts | 213° |
| 2026-04-26 08:53 | 54.72646 | -5.74239 | 2506 ft | 170 kts | 213° |
| 2026-04-26 08:53 | 54.71693 | -5.75387 | 2284 ft | 163 kts | 212° |
| 2026-04-26 08:54 | 54.70789 | -5.76475 | 2065 ft | 159 kts | 212° |
| 2026-04-26 08:54 | 54.69886 | -5.77561 | 1851 ft | 155 kts | 211° |
| 2026-04-26 08:54 | 54.69038 | -5.78582 | 1644 ft | 143 kts | 212° |
| 2026-04-26 08:54 | 54.68242 | -5.79538 | 1452 ft | 137 kts | 212° |
| 2026-04-26 08:55 | 54.67466 | -5.80469 | 1255 ft | 135 kts | 210° |
| 2026-04-26 08:55 | 54.66691 | -5.81399 | 1064 ft | 136 kts | 211° |
| 2026-04-26 08:55 | 54.65904 | -5.82340 | 917 ft | 138 kts | 211° |
| 2026-04-26 08:55 | 54.65108 | -5.83282 | 697 ft | 138 kts | 213° |
| 2026-04-26 08:56 | 54.64316 | -5.84229 | 508 ft | 138 kts | 212° |
| 2026-04-26 08:56 | 54.63786 | -5.84880 | 372 ft | 138 kts | 214° |
| 2026-04-26 08:56 | 54.63007 | -5.85821 | 194 ft | 138 kts | 212° |
| 2026-04-26 08:56 | 54.62219 | -5.86767 | 30 ft | 133 kts | 211° |
| 2026-04-26 08:57 | 54.61678 | -5.87411 | 18 ft | 30 kts | 213° |
| 2026-04-26 08:57 | 54.61523 | -5.87594 | 14 ft | 28 kts | 214° |
| 2026-04-26 08:57 | 54.61389 | -5.87754 | 14 ft | 8 kts | 215° |
| 2026-04-26 08:57 | 54.61337 | -5.87802 | 14 ft | 9 kts | 186° |
| 2026-04-26 08:58 | 54.61287 | -5.87733 | 15 ft | 9 kts | 124° |
| 2026-04-26 08:58 | 54.61277 | -5.87706 | 15 ft | 3 kts | 124° |
| 2026-04-26 08:58 | 54.61268 | -5.87686 | 16 ft | 0 kts | 124° |
| 2026-04-26 08:58 | 54.61267 | -5.87682 | 16 ft | 2 kts | 124° |
| 2026-04-26 08:59 | 54.61254 | -5.87638 | 18 ft | 5 kts | 99° |
| 2026-04-26 08:59 | 54.61268 | -5.87587 | 19 ft | 5 kts | 48° |
| 2026-04-26 08:59 | 54.61316 | -5.87526 | 19 ft | 10 kts | 34° |
| 2026-04-26 08:59 | 54.61376 | -5.87455 | 21 ft | 11 kts | 35° |
| 2026-04-26 09:00 | 54.61428 | -5.87348 | 21 ft | 13 kts | 41° |
| 2026-04-26 09:00 | 54.61499 | -5.87263 | 21 ft | 8 kts | 34° |
| 2026-04-26 09:00 | 54.61538 | -5.87213 | 21 ft | 5 kts | 47° |
| 2026-04-26 09:00 | 54.61525 | -5.87169 | 21 ft | 3 kts | 131° |
| 2026-04-26 09:01 | 54.61507 | -5.87151 | 21 ft | 2 kts | 155° |
| 2026-04-26 09:01 | 54.61501 | -5.87146 | 21 ft | 0 kts | 156° |
| 2026-04-26 09:01 | 54.61500 | -5.87145 | 21 ft | 0 kts | 156° |